Barbados Meteorological Services
Auto gathered TAF list
Powered by Apparatus software
For Flight DE2258
Contact Number 1-(246)-535-0021/2/3/4/5/6
WEB: http://www.barbadosweather.org

**********************************************

2017/03/26 18:33
TAF TBPB 261700Z 2618/2718 11015KT 9999 SCT018


**********************************************
2017/03/26 12:20
TAF TAPA 261100Z 2612/2712 13010KT 9999 SCT021 PROB30
TEMPO 2618/2624 SHRA PROB40
TEMPO 2706/2712 -TSRA BKN014CB


**********************************************
2017/03/26 19:19
TAF
AMD LPPR 261912Z 2619/2718 05008KT 9999 SCT025 BKN045
TEMPO 2619/2718 8000 SHRA SCT006 BKN014 FEW025CB PROB30
TEMPO 2619/2624 3000 TSRA SCT020CB
BECMG 2620/2623 18013KT
BECMG 2709/2712 21015KT


**********************************************
2017/03/26 18:18
TAF LPPD 261730Z 2618/2718 20012KT 9999 SCT012 BKN025
TEMPO 2618/2703 4000 RADZ BR SCT006 BKN012
BECMG 2703/2705 26013KT SCT020


**********************************************
2017/03/26 18:11
TAF COR LPLA 261707Z 2618/2718 19015KT 6000 -RADZ FEW015 BKN025 PROB40
TEMPO 2618/2622 20015G25KT 3000 DZRA BR SCT009 BKN015
BECMG 2623/2701 30015KT 9999 NSW SCT020 BKN030
BECMG 2712/2714 22015KT
TEMPO 2713/2718 23015G25KT 6000 -RADZ SCT015 BKN020


**********************************************
2017/03/26 18:20
TAF LPAZ 261730Z 2618/2724 21013KT 9999 SCT012 BKN035
TEMPO 2618/2704 5000 RADZ BR SCT006 BKN012
BECMG 2704/2706 26015KT SCT020


**********************************************
2017/03/26 18:25
TAF LIMC 261700Z 2618/2724 VRB05KT 8000 BKN060


**********************************************
2017/03/26 18:21
TAF LFPO 261700Z 2618/2724 09007KT CAVOK


**********************************************
2017/03/26 18:27
TAF LEVT 261700Z 2618/2718 15009KT 9999 FEW025 SCT040 TX16/2715Z TN04/2706Z
TEMPO 2618/2712 13015G25KT PROB40
TEMPO 2704/2714 SHRA BKN025TCU
BECMG 2711/2714 20015G25KT


**********************************************
2017/03/26 18:27
TAF LEMD 261700Z 2618/2724 16010KT 9999 SCT050 TX13/2715Z TN06/2707Z
TEMPO 2618/2706 16015G25KT
TEMPO 2623/2712 RA PROB30
TEMPO 2700/2709 3000 RA BKN010 PROB30
TEMPO 2712/2719 SHRA SCT040TCU
BECMG 2716/2718 VRB04KT


**********************************************
2017/03/26 18:33
TAF ESSA 261730Z 2618/2718 32015KT CAVOK
BECMG 2621/2624 30005KT
BECMG 2706/2709 24010KT
BECMG 2715/2718 33015G25KT


**********************************************
2017/03/26 18:27
TAF ELLX 261700Z 2618/2724 06008KT CAVOK
BECMG 2709/2712 14010KT


**********************************************
2012/04/19 12:15
TAF TAF EGTE 191401Z 1912/1924 31016KT 9999 SCT030 SCT035 PROB40
TEMPO 1915/1918 7000 SHRA BKN014


**********************************************
2017/03/26 18:15
TAF EGPK 261701Z 2618/2718 VRB05KT 9999 FEW035


**********************************************
2017/03/26 18:15
TAF EGNT 261701Z 2618/2718 10006KT 9999 FEW030
TEMPO 2621/2712 BKN012 PROB30
TEMPO 2704/2709 6000 BKN006


**********************************************
2017/03/26 18:15
TAF TAF EGLL 261657Z 2618/2724 08012KT CAVOK
BECMG 2700/2703 6000
TEMPO 2700/2710 BKN006 PROB30
TEMPO 2702/2709 3000 BR BKN003
BECMG 2708/2711 9999
BECMG 2721/2724 7000


**********************************************
2017/03/26 23:03
TAF
AMD TAF
AMD EGKK 262300Z 2623/2724 06010KT CAVOK
BECMG 2623/2702 7000 PROB30
TEMPO 2703/2709 3000 BR BKN005
BECMG 2709/2711 9999
BECMG 2715/2718 13006KT PROB40 2721/2724 8000


**********************************************
2017/03/26 18:15
TAF EGFF 261656Z 2618/2718 07016KT 9999 FEW030
TEMPO 2704/2710 BKN012


**********************************************
2017/03/27 00:15
TAF
AMD TAF
AMD EGCC 270011Z 2700/2806 08006KT 6000 FEW010
TEMPO 2700/2707 4500 BR BKN009
BECMG 2707/2710 9999
BECMG 2712/2715 14010KT
TEMPO 2721/2806 8000 PROB30
TEMPO 2803/2806 BKN008


**********************************************
2017/03/26 18:15
TAF EGBB 261656Z 2618/2718 08009KT 9999 FEW030
BECMG 2700/2703 8000 BKN008 PROB40
TEMPO 2703/2709 0600 FG OVC001
BECMG 2709/2712 9999 FEW010 SCT030


**********************************************
2017/03/26 18:27
TAF EDDM 261700Z 2618/2724 07008KT CAVOK


**********************************************
2017/03/26 18:27
TAF EDDL 261700Z 2618/2724 05008KT CAVOK
BECMG 2620/2623 12006KT


**********************************************
2017/03/26 18:27
TAF EDDK 261700Z 2618/2724 07007KT CAVOK
BECMG 2620/2623 13005KT
BECMG 2708/2711 13010KT
BECMG 2717/2719 11005KT


**********************************************
2017/03/26 18:27
TAF TAF EDDF 261700Z 2618/2724 04007KT CAVOK
BECMG 2710/2712 10008KT
BECMG 2718/2720 VRB03KT


**********************************************
2017/03/26 18:27
TAF TAF EBBR 261710Z 2618/2724 06006KT CAVOK


**********************************************